sensor_id;sensor_type;location;lat;lon;timestamp;temperature;humidity
18934;DHT22;9599;53.706;10.384;2022-08-19T00:01:50;20.30;99.90
18934;DHT22;9599;53.706;10.384;2022-08-19T00:04:23;20.40;99.90
18934;DHT22;9599;53.706;10.384;2022-08-19T00:06:52;20.40;99.90
18934;DHT22;9599;53.706;10.384;2022-08-19T00:09:22;20.40;99.90
18934;DHT22;9599;53.706;10.384;2022-08-19T00:11:50;20.40;99.90
18934;DHT22;9599;53.706;10.384;2022-08-19T00:14:19;20.40;99.90
18934;DHT22;9599;53.706;10.384;2022-08-19T00:16:49;20.30;99.90
18934;DHT22;9599;53.706;10.384;2022-08-19T00:19:18;20.20;99.90
18934;DHT22;9599;53.706;10.384;2022-08-19T00:21:47;20.20;99.90
18934;DHT22;9599;53.706;10.384;2022-08-19T00:24:15;20.10;99.90
18934;DHT22;9599;53.706;10.384;2022-08-19T00:26:43;20.10;99.90
18934;DHT22;9599;53.706;10.384;2022-08-19T00:29:14;20.20;99.90
18934;DHT22;9599;53.706;10.384;2022-08-19T00:31:42;20.20;99.90
18934;DHT22;9599;53.706;10.384;2022-08-19T00:34:10;20.20;99.90
18934;DHT22;9599;53.706;10.384;2022-08-19T00:36:39;20.10;99.90
18934;DHT22;9599;53.706;10.384;2022-08-19T00:39:09;20.20;99.90
18934;DHT22;9599;53.706;10.384;2022-08-19T00:41:37;20.20;99.90
18934;DHT22;9599;53.706;10.384;2022-08-19T00:44:08;20.20;99.90
18934;DHT22;9599;53.706;10.384;2022-08-19T00:46:38;20.10;99.90
18934;DHT22;9599;53.706;10.384;2022-08-19T00:49:11;20.10;99.90
18934;DHT22;9599;53.706;10.384;2022-08-19T00:51:41;20.10;99.90
18934;DHT22;9599;53.706;10.384;2022-08-19T00:54:11;20.00;99.90
18934;DHT22;9599;53.706;10.384;2022-08-19T00:56:40;20.00;99.90
18934;DHT22;9599;53.706;10.384;2022-08-19T00:59:09;20.00;99.90
18934;DHT22;9599;53.706;10.384;2022-08-19T01:01:38;20.00;99.90
18934;DHT22;9599;53.706;10.384;2022-08-19T01:04:07;19.90;99.90
18934;DHT22;9599;53.706;10.384;2022-08-19T01:06:36;19.80;99.90
18934;DHT22;9599;53.706;10.384;2022-08-19T01:09:05;19.80;99.90
18934;DHT22;9599;53.706;10.384;2022-08-19T01:11:38;19.80;99.90
18934;DHT22;9599;53.706;10.384;2022-08-19T01:14:07;19.70;99.90
18934;DHT22;9599;53.706;10.384;2022-08-19T01:16:37;19.70;99.90
18934;DHT22;9599;53.706;10.384;2022-08-19T01:19:11;19.80;99.90
18934;DHT22;9599;53.706;10.384;2022-08-19T01:21:45;19.70;99.90
18934;DHT22;9599;53.706;10.384;2022-08-19T01:24:17;19.70;99.90
18934;DHT22;9599;53.706;10.384;2022-08-19T01:26:45;19.80;99.90
18934;DHT22;9599;53.706;10.384;2022-08-19T01:29:14;19.80;99.90
18934;DHT22;9599;53.706;10.384;2022-08-19T01:31:42;19.90;99.90
18934;DHT22;9599;53.706;10.384;2022-08-19T01:34:10;19.80;99.90
18934;DHT22;9599;53.706;10.384;2022-08-19T01:36:40;19.70;99.90
18934;DHT22;9599;53.706;10.384;2022-08-19T01:39:15;19.80;99.90
18934;DHT22;9599;53.706;10.384;2022-08-19T01:41:45;19.80;99.90
18934;DHT22;9599;53.706;10.384;2022-08-19T01:44:15;19.70;99.90
18934;DHT22;9599;53.706;10.384;2022-08-19T01:46:46;19.70;99.90
18934;DHT22;9599;53.706;10.384;2022-08-19T01:49:16;19.70;99.90
18934;DHT22;9599;53.706;10.384;2022-08-19T01:51:44;19.70;99.90
18934;DHT22;9599;53.706;10.384;2022-08-19T01:54:13;19.70;99.90
18934;DHT22;9599;53.706;10.384;2022-08-19T01:56:58;19.70;99.90
18934;DHT22;9599;53.706;10.384;2022-08-19T01:59:28;19.70;99.90
18934;DHT22;9599;53.706;10.384;2022-08-19T02:01:56;19.70;99.90
18934;DHT22;9599;53.706;10.384;2022-08-19T02:04:23;19.70;99.90
18934;DHT22;9599;53.706;10.384;2022-08-19T02:06:52;19.70;99.90
18934;DHT22;9599;53.706;10.384;2022-08-19T02:09:20;19.70;99.90
18934;DHT22;9599;53.706;10.384;2022-08-19T02:11:47;19.60;99.90
18934;DHT22;9599;53.706;10.384;2022-08-19T02:14:17;19.70;99.90
18934;DHT22;9599;53.706;10.384;2022-08-19T02:16:45;19.70;99.90
18934;DHT22;9599;53.706;10.384;2022-08-19T02:19:13;19.60;99.90
18934;DHT22;9599;53.706;10.384;2022-08-19T02:21:40;19.60;99.90
18934;DHT22;9599;53.706;10.384;2022-08-19T02:24:10;19.60;99.90
18934;DHT22;9599;53.706;10.384;2022-08-19T02:26:38;19.70;99.90
18934;DHT22;9599;53.706;10.384;2022-08-19T02:29:07;19.70;99.90
18934;DHT22;9599;53.706;10.384;2022-08-19T02:31:36;19.80;99.90
18934;DHT22;9599;53.706;10.384;2022-08-19T02:34:04;19.80;99.90
18934;DHT22;9599;53.706;10.384;2022-08-19T02:36:32;19.70;99.90
18934;DHT22;9599;53.706;10.384;2022-08-19T02:39:00;19.70;99.90
18934;DHT22;9599;53.706;10.384;2022-08-19T02:41:28;19.80;99.90
18934;DHT22;9599;53.706;10.384;2022-08-19T02:43:59;19.80;99.90
18934;DHT22;9599;53.706;10.384;2022-08-19T02:46:49;19.80;99.90
18934;DHT22;9599;53.706;10.384;2022-08-19T02:49:18;19.80;99.90
18934;DHT22;9599;53.706;10.384;2022-08-19T02:51:47;19.80;99.90
18934;DHT22;9599;53.706;10.384;2022-08-19T02:54:16;19.90;99.90
18934;DHT22;9599;53.706;10.384;2022-08-19T02:56:44;19.90;99.90
18934;DHT22;9599;53.706;10.384;2022-08-19T02:59:13;20.00;99.90
18934;DHT22;9599;53.706;10.384;2022-08-19T03:01:41;20.00;99.90
18934;DHT22;9599;53.706;10.384;2022-08-19T03:04:12;20.00;99.90
18934;DHT22;9599;53.706;10.384;2022-08-19T03:06:43;20.00;99.90
18934;DHT22;9599;53.706;10.384;2022-08-19T03:09:12;20.00;99.90
18934;DHT22;9599;53.706;10.384;2022-08-19T03:11:40;20.10;99.90
18934;DHT22;9599;53.706;10.384;2022-08-19T03:14:09;20.10;99.90
18934;DHT22;9599;53.706;10.384;2022-08-19T03:16:42;20.00;99.90
18934;DHT22;9599;53.706;10.384;2022-08-19T03:19:12;19.90;99.90
18934;DHT22;9599;53.706;10.384;2022-08-19T03:21:42;19.80;99.90
18934;DHT22;9599;53.706;10.384;2022-08-19T03:24:11;19.90;99.90
18934;DHT22;9599;53.706;10.384;2022-08-19T03:26:40;19.90;99.90
18934;DHT22;9599;53.706;10.384;2022-08-19T03:29:09;19.80;99.90
18934;DHT22;9599;53.706;10.384;2022-08-19T03:31:40;19.90;99.90
18934;DHT22;9599;53.706;10.384;2022-08-19T03:34:21;19.90;99.90
18934;DHT22;9599;53.706;10.384;2022-08-19T03:36:54;19.90;99.90
18934;DHT22;9599;53.706;10.384;2022-08-19T03:39:23;19.90;99.90
18934;DHT22;9599;53.706;10.384;2022-08-19T03:41:53;19.90;99.90
18934;DHT22;9599;53.706;10.384;2022-08-19T03:44:43;19.80;99.90
18934;DHT22;9599;53.706;10.384;2022-08-19T03:47:12;19.80;99.90
18934;DHT22;9599;53.706;10.384;2022-08-19T03:49:44;19.80;99.90
18934;DHT22;9599;53.706;10.384;2022-08-19T03:52:13;19.80;99.90
18934;DHT22;9599;53.706;10.384;2022-08-19T03:54:42;19.90;99.90
18934;DHT22;9599;53.706;10.384;2022-08-19T03:57:09;19.90;99.90
18934;DHT22;9599;53.706;10.384;2022-08-19T03:59:38;19.90;99.90
18934;DHT22;9599;53.706;10.384;2022-08-19T04:02:08;19.90;99.90
18934;DHT22;9599;53.706;10.384;2022-08-19T04:04:37;19.90;99.90
18934;DHT22;9599;53.706;10.384;2022-08-19T04:07:07;19.90;99.90
18934;DHT22;9599;53.706;10.384;2022-08-19T04:09:36;19.90;99.90
18934;DHT22;9599;53.706;10.384;2022-08-19T04:12:04;19.80;99.90
18934;DHT22;9599;53.706;10.384;2022-08-19T04:14:34;19.80;99.90
18934;DHT22;9599;53.706;10.384;2022-08-19T04:17:03;19.80;99.90
18934;DHT22;9599;53.706;10.384;2022-08-19T04:19:32;19.80;99.90
18934;DHT22;9599;53.706;10.384;2022-08-19T04:22:00;19.80;99.90
18934;DHT22;9599;53.706;10.384;2022-08-19T04:24:30;19.70;99.90
18934;DHT22;9599;53.706;10.384;2022-08-19T04:26:59;19.60;99.90
18934;DHT22;9599;53.706;10.384;2022-08-19T04:29:29;19.70;99.90
18934;DHT22;9599;53.706;10.384;2022-08-19T04:31:58;19.70;99.90
18934;DHT22;9599;53.706;10.384;2022-08-19T04:34:34;19.70;99.90
18934;DHT22;9599;53.706;10.384;2022-08-19T04:37:23;19.70;99.90
18934;DHT22;9599;53.706;10.384;2022-08-19T04:39:52;19.60;99.90
18934;DHT22;9599;53.706;10.384;2022-08-19T04:42:38;19.70;99.90
18934;DHT22;9599;53.706;10.384;2022-08-19T04:45:07;19.70;99.90
18934;DHT22;9599;53.706;10.384;2022-08-19T04:47:39;19.70;99.90
18934;DHT22;9599;53.706;10.384;2022-08-19T04:50:18;19.70;99.90
18934;DHT22;9599;53.706;10.384;2022-08-19T04:52:46;19.80;99.90
18934;DHT22;9599;53.706;10.384;2022-08-19T04:55:15;19.80;99.90
18934;DHT22;9599;53.706;10.384;2022-08-19T04:57:44;19.80;99.90
18934;DHT22;9599;53.706;10.384;2022-08-19T05:00:12;19.90;99.90
18934;DHT22;9599;53.706;10.384;2022-08-19T05:02:40;19.90;99.90
18934;DHT22;9599;53.706;10.384;2022-08-19T05:05:08;19.90;99.90
18934;DHT22;9599;53.706;10.384;2022-08-19T05:07:36;19.90;99.90
18934;DHT22;9599;53.706;10.384;2022-08-19T05:10:05;19.80;99.90
18934;DHT22;9599;53.706;10.384;2022-08-19T05:12:35;19.90;99.90
18934;DHT22;9599;53.706;10.384;2022-08-19T05:15:04;19.90;99.90
18934;DHT22;9599;53.706;10.384;2022-08-19T05:17:33;19.90;99.90
18934;DHT22;9599;53.706;10.384;2022-08-19T05:20:06;19.90;99.90
18934;DHT22;9599;53.706;10.384;2022-08-19T05:22:51;19.90;99.90
18934;DHT22;9599;53.706;10.384;2022-08-19T05:25:20;19.80;99.90
18934;DHT22;9599;53.706;10.384;2022-08-19T05:27:50;20.00;99.90
18934;DHT22;9599;53.706;10.384;2022-08-19T05:30:18;20.10;99.90
18934;DHT22;9599;53.706;10.384;2022-08-19T05:33:06;20.10;99.90
18934;DHT22;9599;53.706;10.384;2022-08-19T05:35:36;20.10;99.90
18934;DHT22;9599;53.706;10.384;2022-08-19T05:38:03;20.20;99.90
18934;DHT22;9599;53.706;10.384;2022-08-19T05:40:34;20.30;99.90
18934;DHT22;9599;53.706;10.384;2022-08-19T05:43:06;20.30;99.90
18934;DHT22;9599;53.706;10.384;2022-08-19T05:45:38;20.30;99.90
18934;DHT22;9599;53.706;10.384;2022-08-19T05:48:08;20.20;99.90
18934;DHT22;9599;53.706;10.384;2022-08-19T05:50:38;20.10;99.90
18934;DHT22;9599;53.706;10.384;2022-08-19T05:53:06;20.00;99.90
18934;DHT22;9599;53.706;10.384;2022-08-19T05:55:35;19.90;99.90
18934;DHT22;9599;53.706;10.384;2022-08-19T05:58:06;19.90;99.90
18934;DHT22;9599;53.706;10.384;2022-08-19T06:00:34;19.90;99.90
18934;DHT22;9599;53.706;10.384;2022-08-19T06:03:03;20.00;99.90
18934;DHT22;9599;53.706;10.384;2022-08-19T06:05:38;20.10;99.90
18934;DHT22;9599;53.706;10.384;2022-08-19T06:08:19;20.20;99.90
18934;DHT22;9599;53.706;10.384;2022-08-19T06:11:13;20.30;99.90
18934;DHT22;9599;53.706;10.384;2022-08-19T06:13:44;20.30;99.90
18934;DHT22;9599;53.706;10.384;2022-08-19T06:16:17;20.30;99.90
18934;DHT22;9599;53.706;10.384;2022-08-19T06:18:50;20.20;99.90
18934;DHT22;9599;53.706;10.384;2022-08-19T06:21:19;20.20;99.90
18934;DHT22;9599;53.706;10.384;2022-08-19T06:23:48;20.10;99.90
18934;DHT22;9599;53.706;10.384;2022-08-19T06:26:18;20.00;99.90
18934;DHT22;9599;53.706;10.384;2022-08-19T06:28:48;19.90;99.90
18934;DHT22;9599;53.706;10.384;2022-08-19T06:31:20;19.90;99.90
18934;DHT22;9599;53.706;10.384;2022-08-19T06:33:48;19.90;99.90
18934;DHT22;9599;53.706;10.384;2022-08-19T06:36:19;20.00;99.90
18934;DHT22;9599;53.706;10.384;2022-08-19T06:38:51;20.00;99.90
18934;DHT22;9599;53.706;10.384;2022-08-19T06:41:19;19.90;99.90
18934;DHT22;9599;53.706;10.384;2022-08-19T06:43:48;20.00;99.90
18934;DHT22;9599;53.706;10.384;2022-08-19T06:46:20;20.10;99.90
18934;DHT22;9599;53.706;10.384;2022-08-19T06:48:48;20.00;99.90
18934;DHT22;9599;53.706;10.384;2022-08-19T06:51:17;20.00;99.90
18934;DHT22;9599;53.706;10.384;2022-08-19T06:53:48;20.00;99.90
18934;DHT22;9599;53.706;10.384;2022-08-19T06:56:19;19.90;99.90
18934;DHT22;9599;53.706;10.384;2022-08-19T06:58:48;19.90;99.90
18934;DHT22;9599;53.706;10.384;2022-08-19T07:01:19;20.00;99.90
18934;DHT22;9599;53.706;10.384;2022-08-19T07:03:47;19.90;99.90
18934;DHT22;9599;53.706;10.384;2022-08-19T07:06:17;19.80;99.90
18934;DHT22;9599;53.706;10.384;2022-08-19T07:09:09;19.90;99.90
18934;DHT22;9599;53.706;10.384;2022-08-19T07:11:38;19.80;99.90
18934;DHT22;9599;53.706;10.384;2022-08-19T07:14:07;19.90;99.90
18934;DHT22;9599;53.706;10.384;2022-08-19T07:16:46;19.90;99.90
18934;DHT22;9599;53.706;10.384;2022-08-19T07:19:15;19.90;99.90
18934;DHT22;9599;53.706;10.384;2022-08-19T07:21:48;19.90;99.90
18934;DHT22;9599;53.706;10.384;2022-08-19T07:24:18;20.00;99.90
18934;DHT22;9599;53.706;10.384;2022-08-19T07:26:46;20.00;99.90
18934;DHT22;9599;53.706;10.384;2022-08-19T07:29:20;20.20;99.90
18934;DHT22;9599;53.706;10.384;2022-08-19T07:31:51;20.20;99.90
18934;DHT22;9599;53.706;10.384;2022-08-19T07:34:22;20.20;99.90
18934;DHT22;9599;53.706;10.384;2022-08-19T07:36:50;20.20;99.90
18934;DHT22;9599;53.706;10.384;2022-08-19T07:39:20;20.30;99.90
18934;DHT22;9599;53.706;10.384;2022-08-19T07:41:49;20.20;99.90
18934;DHT22;9599;53.706;10.384;2022-08-19T07:44:19;20.20;99.90
18934;DHT22;9599;53.706;10.384;2022-08-19T07:46:49;20.20;99.90
18934;DHT22;9599;53.706;10.384;2022-08-19T07:49:20;20.20;99.90
18934;DHT22;9599;53.706;10.384;2022-08-19T07:51:49;20.30;99.90
18934;DHT22;9599;53.706;10.384;2022-08-19T07:54:19;20.40;99.90
18934;DHT22;9599;53.706;10.384;2022-08-19T07:56:47;20.30;99.90
18934;DHT22;9599;53.706;10.384;2022-08-19T07:59:20;20.30;99.90
18934;DHT22;9599;53.706;10.384;2022-08-19T08:01:49;20.40;99.90
18934;DHT22;9599;53.706;10.384;2022-08-19T08:04:17;20.50;99.90
18934;DHT22;9599;53.706;10.384;2022-08-19T08:07:03;20.50;99.90
18934;DHT22;9599;53.706;10.384;2022-08-19T08:09:49;20.60;99.90
18934;DHT22;9599;53.706;10.384;2022-08-19T08:12:20;20.70;99.90
18934;DHT22;9599;53.706;10.384;2022-08-19T08:15:05;20.70;99.90
18934;DHT22;9599;53.706;10.384;2022-08-19T08:17:38;20.80;99.90
18934;DHT22;9599;53.706;10.384;2022-08-19T08:20:17;20.70;99.90
18934;DHT22;9599;53.706;10.384;2022-08-19T08:22:46;20.60;99.90
18934;DHT22;9599;53.706;10.384;2022-08-19T08:25:32;20.60;99.90
18934;DHT22;9599;53.706;10.384;2022-08-19T08:28:02;20.60;99.90
18934;DHT22;9599;53.706;10.384;2022-08-19T08:30:32;20.50;99.90
18934;DHT22;9599;53.706;10.384;2022-08-19T08:33:02;20.40;99.90
18934;DHT22;9599;53.706;10.384;2022-08-19T08:35:31;20.30;99.90
18934;DHT22;9599;53.706;10.384;2022-08-19T08:38:00;20.50;99.90
18934;DHT22;9599;53.706;10.384;2022-08-19T08:40:36;20.60;99.90
18934;DHT22;9599;53.706;10.384;2022-08-19T08:43:08;20.60;99.90
18934;DHT22;9599;53.706;10.384;2022-08-19T08:45:44;20.60;99.90
18934;DHT22;9599;53.706;10.384;2022-08-19T08:48:22;20.60;99.90
18934;DHT22;9599;53.706;10.384;2022-08-19T08:50:53;20.50;99.90
18934;DHT22;9599;53.706;10.384;2022-08-19T08:53:22;20.50;99.90
18934;DHT22;9599;53.706;10.384;2022-08-19T08:55:55;20.50;99.90
18934;DHT22;9599;53.706;10.384;2022-08-19T08:58:27;20.60;99.90
18934;DHT22;9599;53.706;10.384;2022-08-19T09:00:58;20.60;99.90
18934;DHT22;9599;53.706;10.384;2022-08-19T09:03:27;20.50;99.90
18934;DHT22;9599;53.706;10.384;2022-08-19T09:06:02;20.50;99.90
18934;DHT22;9599;53.706;10.384;2022-08-19T09:08:42;20.40;99.90
18934;DHT22;9599;53.706;10.384;2022-08-19T09:11:18;20.50;99.90
18934;DHT22;9599;53.706;10.384;2022-08-19T09:14:15;20.60;99.90
18934;DHT22;9599;53.706;10.384;2022-08-19T09:17:10;20.60;99.90
18934;DHT22;9599;53.706;10.384;2022-08-19T09:19:49;20.60;99.90
18934;DHT22;9599;53.706;10.384;2022-08-19T09:22:17;20.60;99.90
18934;DHT22;9599;53.706;10.384;2022-08-19T09:24:53;20.40;99.90
18934;DHT22;9599;53.706;10.384;2022-08-19T09:27:22;20.30;99.90
18934;DHT22;9599;53.706;10.384;2022-08-19T09:30:13;20.40;99.90
18934;DHT22;9599;53.706;10.384;2022-08-19T09:32:43;20.40;99.90
18934;DHT22;9599;53.706;10.384;2022-08-19T09:35:13;20.50;99.90
18934;DHT22;9599;53.706;10.384;2022-08-19T09:37:42;20.50;99.90
18934;DHT22;9599;53.706;10.384;2022-08-19T09:40:11;20.50;99.90
18934;DHT22;9599;53.706;10.384;2022-08-19T09:42:41;20.50;99.90
18934;DHT22;9599;53.706;10.384;2022-08-19T09:45:18;20.50;99.90
18934;DHT22;9599;53.706;10.384;2022-08-19T09:47:51;20.40;99.90
18934;DHT22;9599;53.706;10.384;2022-08-19T09:50:21;20.30;99.90
18934;DHT22;9599;53.706;10.384;2022-08-19T09:52:49;20.40;99.90
18934;DHT22;9599;53.706;10.384;2022-08-19T09:55:24;20.50;99.90
18934;DHT22;9599;53.706;10.384;2022-08-19T09:58:01;20.60;99.90
18934;DHT22;9599;53.706;10.384;2022-08-19T10:00:29;20.60;99.90
18934;DHT22;9599;53.706;10.384;2022-08-19T10:02:59;20.60;99.90
18934;DHT22;9599;53.706;10.384;2022-08-19T10:05:29;20.60;99.90
18934;DHT22;9599;53.706;10.384;2022-08-19T10:08:23;20.50;99.90
18934;DHT22;9599;53.706;10.384;2022-08-19T10:10:53;20.60;99.90
18934;DHT22;9599;53.706;10.384;2022-08-19T10:13:27;20.60;99.90
18934;DHT22;9599;53.706;10.384;2022-08-19T10:15:57;20.70;99.90
18934;DHT22;9599;53.706;10.384;2022-08-19T10:18:30;20.90;99.90
18934;DHT22;9599;53.706;10.384;2022-08-19T10:21:06;20.90;99.90
18934;DHT22;9599;53.706;10.384;2022-08-19T10:23:38;20.90;99.90
18934;DHT22;9599;53.706;10.384;2022-08-19T10:26:07;20.90;99.90
18934;DHT22;9599;53.706;10.384;2022-08-19T10:28:36;20.90;99.90
18934;DHT22;9599;53.706;10.384;2022-08-19T10:31:06;20.90;99.90
18934;DHT22;9599;53.706;10.384;2022-08-19T10:33:36;21.00;99.90
18934;DHT22;9599;53.706;10.384;2022-08-19T10:36:21;20.80;99.90
18934;DHT22;9599;53.706;10.384;2022-08-19T10:38:52;20.80;99.90
18934;DHT22;9599;53.706;10.384;2022-08-19T10:41:26;20.80;99.90
18934;DHT22;9599;53.706;10.384;2022-08-19T10:43:55;20.70;99.90
18934;DHT22;9599;53.706;10.384;2022-08-19T10:46:31;20.80;99.90
18934;DHT22;9599;53.706;10.384;2022-08-19T10:49:02;20.80;99.90
18934;DHT22;9599;53.706;10.384;2022-08-19T10:51:31;21.00;99.90
18934;DHT22;9599;53.706;10.384;2022-08-19T10:54:17;21.10;99.90
18934;DHT22;9599;53.706;10.384;2022-08-19T10:56:58;21.20;99.90
18934;DHT22;9599;53.706;10.384;2022-08-19T10:59:27;21.10;99.90
18934;DHT22;9599;53.706;10.384;2022-08-19T11:02:03;21.20;99.90
18934;DHT22;9599;53.706;10.384;2022-08-19T11:04:33;21.00;99.90
18934;DHT22;9599;53.706;10.384;2022-08-19T11:07:01;21.00;99.90
18934;DHT22;9599;53.706;10.384;2022-08-19T11:09:30;21.10;99.90
18934;DHT22;9599;53.706;10.384;2022-08-19T11:12:00;21.20;99.90
18934;DHT22;9599;53.706;10.384;2022-08-19T11:14:30;21.20;99.90
18934;DHT22;9599;53.706;10.384;2022-08-19T11:17:00;21.10;99.90
18934;DHT22;9599;53.706;10.384;2022-08-19T11:19:29;21.00;99.90
18934;DHT22;9599;53.706;10.384;2022-08-19T11:21:58;21.00;99.90
18934;DHT22;9599;53.706;10.384;2022-08-19T11:24:30;21.00;99.90
18934;DHT22;9599;53.706;10.384;2022-08-19T11:27:04;21.10;99.90
18934;DHT22;9599;53.706;10.384;2022-08-19T11:29:33;21.20;99.90
18934;DHT22;9599;53.706;10.384;2022-08-19T11:32:04;21.30;99.90
18934;DHT22;9599;53.706;10.384;2022-08-19T11:34:33;21.40;99.90
18934;DHT22;9599;53.706;10.384;2022-08-19T11:37:03;21.40;99.90
18934;DHT22;9599;53.706;10.384;2022-08-19T11:39:33;21.50;99.90
18934;DHT22;9599;53.706;10.384;2022-08-19T11:42:03;21.40;99.90
18934;DHT22;9599;53.706;10.384;2022-08-19T11:44:52;21.50;99.90
18934;DHT22;9599;53.706;10.384;2022-08-19T11:47:20;21.60;99.90
18934;DHT22;9599;53.706;10.384;2022-08-19T11:49:48;21.70;99.90
18934;DHT22;9599;53.706;10.384;2022-08-19T11:52:17;21.70;99.90
18934;DHT22;9599;53.706;10.384;2022-08-19T11:54:46;21.70;99.90
18934;DHT22;9599;53.706;10.384;2022-08-19T11:57:14;21.70;99.90
18934;DHT22;9599;53.706;10.384;2022-08-19T11:59:48;21.70;99.90
18934;DHT22;9599;53.706;10.384;2022-08-19T12:02:17;21.80;99.90
18934;DHT22;9599;53.706;10.384;2022-08-19T12:04:45;21.80;99.90
18934;DHT22;9599;53.706;10.384;2022-08-19T12:07:14;21.80;99.90
18934;DHT22;9599;53.706;10.384;2022-08-19T12:09:43;21.80;99.90
18934;DHT22;9599;53.706;10.384;2022-08-19T12:12:14;21.90;99.90
18934;DHT22;9599;53.706;10.384;2022-08-19T12:14:42;21.80;99.90
18934;DHT22;9599;53.706;10.384;2022-08-19T12:17:11;21.70;99.90
18934;DHT22;9599;53.706;10.384;2022-08-19T12:19:40;21.70;99.90
18934;DHT22;9599;53.706;10.384;2022-08-19T12:22:07;21.70;99.90
18934;DHT22;9599;53.706;10.384;2022-08-19T12:24:35;21.70;99.90
18934;DHT22;9599;53.706;10.384;2022-08-19T12:27:05;21.90;99.90
18934;DHT22;9599;53.706;10.384;2022-08-19T12:29:38;22.00;99.90
18934;DHT22;9599;53.706;10.384;2022-08-19T12:32:08;22.00;99.90
18934;DHT22;9599;53.706;10.384;2022-08-19T12:34:38;22.10;99.90
18934;DHT22;9599;53.706;10.384;2022-08-19T12:37:06;22.20;99.90
18934;DHT22;9599;53.706;10.384;2022-08-19T12:39:36;22.30;99.90
18934;DHT22;9599;53.706;10.384;2022-08-19T12:42:06;22.30;99.90
18934;DHT22;9599;53.706;10.384;2022-08-19T12:44:35;22.40;99.90
18934;DHT22;9599;53.706;10.384;2022-08-19T12:47:03;22.50;99.90
18934;DHT22;9599;53.706;10.384;2022-08-19T12:49:35;22.60;99.90
18934;DHT22;9599;53.706;10.384;2022-08-19T12:52:22;22.50;99.90
18934;DHT22;9599;53.706;10.384;2022-08-19T12:54:50;22.60;99.90
18934;DHT22;9599;53.706;10.384;2022-08-19T12:57:22;22.70;99.90
18934;DHT22;9599;53.706;10.384;2022-08-19T13:00:00;22.80;99.90
18934;DHT22;9599;53.706;10.384;2022-08-19T13:02:31;22.90;99.90
18934;DHT22;9599;53.706;10.384;2022-08-19T13:05:07;22.80;99.90
18934;DHT22;9599;53.706;10.384;2022-08-19T13:07:37;22.70;99.90
18934;DHT22;9599;53.706;10.384;2022-08-19T13:10:06;22.60;99.90
18934;DHT22;9599;53.706;10.384;2022-08-19T13:12:36;22.50;99.90
18934;DHT22;9599;53.706;10.384;2022-08-19T13:15:05;22.40;99.90
18934;DHT22;9599;53.706;10.384;2022-08-19T13:17:38;22.60;99.90
18934;DHT22;9599;53.706;10.384;2022-08-19T13:20:07;22.70;99.90
18934;DHT22;9599;53.706;10.384;2022-08-19T13:22:36;22.90;99.90
18934;DHT22;9599;53.706;10.384;2022-08-19T13:25:05;22.90;99.90
18934;DHT22;9599;53.706;10.384;2022-08-19T13:27:34;22.90;99.90
18934;DHT22;9599;53.706;10.384;2022-08-19T13:30:05;23.00;99.90
18934;DHT22;9599;53.706;10.384;2022-08-19T13:33:03;23.20;99.90
18934;DHT22;9599;53.706;10.384;2022-08-19T13:35:45;23.30;99.90
18934;DHT22;9599;53.706;10.384;2022-08-19T13:38:15;23.60;99.90
18934;DHT22;9599;53.706;10.384;2022-08-19T13:40:44;23.90;99.90
18934;DHT22;9599;53.706;10.384;2022-08-19T13:43:13;24.20;99.90
18934;DHT22;9599;53.706;10.384;2022-08-19T13:45:51;24.40;99.90
18934;DHT22;9599;53.706;10.384;2022-08-19T13:48:24;24.60;99.90
18934;DHT22;9599;53.706;10.384;2022-08-19T13:50:53;24.60;99.90
18934;DHT22;9599;53.706;10.384;2022-08-19T13:53:21;24.50;99.90
18934;DHT22;9599;53.706;10.384;2022-08-19T13:55:49;24.60;99.90
18934;DHT22;9599;53.706;10.384;2022-08-19T13:58:17;24.30;99.90
18934;DHT22;9599;53.706;10.384;2022-08-19T14:00:46;24.20;99.90
18934;DHT22;9599;53.706;10.384;2022-08-19T14:03:16;24.20;99.90
18934;DHT22;9599;53.706;10.384;2022-08-19T14:05:44;24.20;99.90
18934;DHT22;9599;53.706;10.384;2022-08-19T14:08:13;24.30;99.90
18934;DHT22;9599;53.706;10.384;2022-08-19T14:10:41;24.30;99.90
18934;DHT22;9599;53.706;10.384;2022-08-19T14:13:13;24.40;99.90
18934;DHT22;9599;53.706;10.384;2022-08-19T14:15:42;24.50;99.90
18934;DHT22;9599;53.706;10.384;2022-08-19T14:18:10;24.50;99.90
18934;DHT22;9599;53.706;10.384;2022-08-19T14:20:39;24.60;99.90
18934;DHT22;9599;53.706;10.384;2022-08-19T14:23:07;24.70;99.90
18934;DHT22;9599;53.706;10.384;2022-08-19T14:25:35;24.90;99.90
18934;DHT22;9599;53.706;10.384;2022-08-19T14:28:04;24.90;99.90
18934;DHT22;9599;53.706;10.384;2022-08-19T14:30:35;25.00;99.90
18934;DHT22;9599;53.706;10.384;2022-08-19T14:33:05;24.90;99.90
18934;DHT22;9599;53.706;10.384;2022-08-19T14:35:33;24.80;99.90
18934;DHT22;9599;53.706;10.384;2022-08-19T14:38:04;24.80;99.90
18934;DHT22;9599;53.706;10.384;2022-08-19T14:40:32;24.70;99.90
18934;DHT22;9599;53.706;10.384;2022-08-19T14:43:03;24.50;99.90
18934;DHT22;9599;53.706;10.384;2022-08-19T14:45:34;24.50;99.90
18934;DHT22;9599;53.706;10.384;2022-08-19T14:48:03;24.40;99.90
18934;DHT22;9599;53.706;10.384;2022-08-19T14:50:32;24.40;99.90
18934;DHT22;9599;53.706;10.384;2022-08-19T14:53:04;24.40;99.90
18934;DHT22;9599;53.706;10.384;2022-08-19T14:55:41;24.40;99.90
18934;DHT22;9599;53.706;10.384;2022-08-19T14:58:09;24.40;99.90
18934;DHT22;9599;53.706;10.384;2022-08-19T15:00:57;24.50;99.90
18934;DHT22;9599;53.706;10.384;2022-08-19T15:03:26;24.50;99.90
18934;DHT22;9599;53.706;10.384;2022-08-19T15:05:55;24.50;99.90
18934;DHT22;9599;53.706;10.384;2022-08-19T15:08:26;24.40;99.90
18934;DHT22;9599;53.706;10.384;2022-08-19T15:10:54;24.30;99.90
18934;DHT22;9599;53.706;10.384;2022-08-19T15:13:23;24.30;99.90
18934;DHT22;9599;53.706;10.384;2022-08-19T15:15:51;24.20;99.90
18934;DHT22;9599;53.706;10.384;2022-08-19T15:18:19;24.30;99.90
18934;DHT22;9599;53.706;10.384;2022-08-19T15:20:48;24.30;99.90
18934;DHT22;9599;53.706;10.384;2022-08-19T15:23:19;24.20;99.90
18934;DHT22;9599;53.706;10.384;2022-08-19T15:25:49;24.10;99.90
18934;DHT22;9599;53.706;10.384;2022-08-19T15:28:20;24.00;99.90
18934;DHT22;9599;53.706;10.384;2022-08-19T15:30:48;24.10;99.90
18934;DHT22;9599;53.706;10.384;2022-08-19T15:33:16;24.00;99.90
18934;DHT22;9599;53.706;10.384;2022-08-19T15:35:47;24.10;99.90
18934;DHT22;9599;53.706;10.384;2022-08-19T15:38:17;24.10;99.90
18934;DHT22;9599;53.706;10.384;2022-08-19T15:40:49;24.20;99.90
18934;DHT22;9599;53.706;10.384;2022-08-19T15:43:19;24.20;99.90
18934;DHT22;9599;53.706;10.384;2022-08-19T15:45:48;24.20;99.90
18934;DHT22;9599;53.706;10.384;2022-08-19T15:48:16;24.20;99.90
18934;DHT22;9599;53.706;10.384;2022-08-19T15:50:44;24.30;99.90
18934;DHT22;9599;53.706;10.384;2022-08-19T15:53:12;24.30;99.90
18934;DHT22;9599;53.706;10.384;2022-08-19T15:55:43;24.20;99.90